Time;durP1;ratioP1;P1;durP2;ratioP2;P2;SDS_P1;SDS_P2;PMS_P1;PMS_P2;Temp;Humidity;BMP_temperature;BMP_pressure;BME280_temperature;BME280_humidity;BME280_pressure;Samples;Min_cycle;Max_cycle;Signal;HPM_P1;HPM_P2
2021/11/20 00:01:40;;;;;;;4.60;2.90;;;14.70;75.60;;;;;;5053518;28;20446;-79
2021/11/20 00:04:06;;;;;;;4.28;3.25;;;14.70;75.60;;;;;;5052660;28;20112;-81
2021/11/20 00:06:36;;;;;;;4.20;3.15;;;14.70;75.60;;;;;;5052676;28;20024;-80
2021/11/20 00:09:04;;;;;;;4.20;3.13;;;14.70;75.60;;;;;;5053596;28;20024;-80
2021/11/20 00:11:32;;;;;;;3.90;2.85;;;14.70;75.60;;;;;;5052641;28;20051;-81
2021/11/20 00:13:59;;;;;;;3.95;2.72;;;14.70;75.60;;;;;;5052688;28;20059;-80
2021/11/20 00:16:25;;;;;;;4.32;3.10;;;14.70;75.60;;;;;;5035847;28;20025;-80
2021/11/20 00:18:53;;;;;;;4.03;3.03;;;14.60;75.60;;;;;;5052707;28;20416;-80
2021/11/20 00:21:28;;;;;;;4.32;3.30;;;14.70;75.60;;;;;;5052952;28;20137;-79
2021/11/20 00:23:58;;;;;;;4.13;3.30;;;14.70;75.60;;;;;;5052675;28;20029;-80
2021/11/20 00:26:29;;;;;;;3.95;2.85;;;14.60;75.50;;;;;;5052386;28;20017;-80
2021/11/20 00:31:28;;;;;;;3.83;2.90;;;14.60;75.60;;;;;;5052639;28;20342;-79
2021/11/20 00:33:53;;;;;;;3.92;2.88;;;14.60;75.60;;;;;;5052384;28;20049;-80
2021/11/20 00:36:22;;;;;;;3.45;2.72;;;14.60;75.50;;;;;;5052412;28;20122;-80
2021/11/20 00:38:49;;;;;;;4.70;3.00;;;14.60;75.60;;;;;;5053213;28;20120;-80
2021/11/20 00:41:20;;;;;;;3.70;2.80;;;14.60;75.60;;;;;;5052174;28;20033;-81
2021/11/20 00:43:47;;;;;;;4.22;3.00;;;14.60;75.60;;;;;;5052280;28;20028;-79
2021/11/20 00:46:16;;;;;;;4.05;2.90;;;14.60;75.60;;;;;;5052240;28;20068;-80
2021/11/20 00:48:45;;;;;;;4.07;3.20;;;14.60;75.60;;;;;;5069249;28;20098;-80
2021/11/20 00:51:13;;;;;;;5.07;3.00;;;14.60;75.60;;;;;;5053063;28;20460;-80
2021/11/20 00:53:41;;;;;;;4.85;3.13;;;14.60;75.60;;;;;;5052359;28;20056;-80
2021/11/20 00:56:08;;;;;;;3.78;3.00;;;14.60;75.60;;;;;;5052243;28;20025;-80
2021/11/20 00:58:35;;;;;;;4.30;3.00;;;14.60;75.60;;;;;;5052296;28;20036;-80
2021/11/20 01:01:08;;;;;;;4.13;3.20;;;14.60;75.60;;;;;;5052038;28;20021;-80
2021/11/20 01:03:33;;;;;;;3.70;3.03;;;14.60;75.60;;;;;;5052386;28;20025;-80
2021/11/20 01:06:02;;;;;;;4.53;3.35;;;14.60;75.60;;;;;;5052071;28;20588;-80
2021/11/20 01:08:33;;;;;;;3.80;3.10;;;14.60;75.60;;;;;;5052061;28;20075;-80
2021/11/20 01:11:04;;;;;;;3.90;3.30;;;14.50;75.60;;;;;;5052202;28;20060;-81
2021/11/20 01:13:31;;;;;;;3.97;3.10;;;14.50;75.60;;;;;;5056452;28;20047;-80
2021/11/20 01:16:03;;;;;;;4.65;3.35;;;14.60;75.60;;;;;;5039563;28;20056;-81
2021/11/20 01:18:30;;;;;;;3.80;2.92;;;14.50;75.60;;;;;;5055764;28;20029;-80
2021/11/20 01:21:07;;;;;;;5.07;3.47;;;14.50;75.60;;;;;;5056096;28;20198;-80
2021/11/20 01:23:36;;;;;;;3.92;3.20;;;14.50;75.60;;;;;;5039453;28;20033;-80
2021/11/20 01:26:08;;;;;;;4.40;3.40;;;14.50;75.60;;;;;;5056486;28;20047;-80
2021/11/20 01:29:01;;;;;;;4.10;3.25;;;14.50;75.60;;;;;;5056633;28;20103;-80
2021/11/20 01:31:33;;;;;;;4.35;3.15;;;14.50;75.60;;;;;;5055875;28;20029;-80
2021/11/20 01:34:00;;;;;;;4.32;3.28;;;14.50;75.60;;;;;;5055299;28;20057;-80
2021/11/20 01:36:30;;;;;;;4.55;3.33;;;14.50;75.60;;;;;;5072501;28;20098;-80
2021/11/20 01:38:59;;;;;;;4.40;3.55;;;14.50;75.60;;;;;;5055014;28;20025;-81
2021/11/20 01:41:36;;;;;;;4.70;3.50;;;14.50;75.60;;;;;;5057568;28;20418;-80
2021/11/20 01:44:25;;;;;;;5.30;3.42;;;14.50;75.60;;;;;;5068905;28;20119;-81
2021/11/20 01:47:00;;;;;;;4.22;3.42;;;14.50;75.60;;;;;;5055547;28;20025;-81
2021/11/20 01:49:37;;;;;;;4.57;3.80;;;14.50;75.60;;;;;;5056304;28;20052;-80
2021/11/20 01:52:37;;;;;;;4.53;3.35;;;14.50;75.70;;;;;;5055467;28;20036;-80
2021/11/20 01:55:28;;;;;;;4.63;3.67;;;14.50;75.80;;;;;;5055161;28;20029;-81
2021/11/20 01:58:28;;;;;;;4.38;3.38;;;14.40;75.70;;;;;;5058333;28;20052;-80
2021/11/20 02:01:10;;;;;;;5.80;4.10;;;14.40;75.60;;;;;;5056975;28;20134;-80
2021/11/20 02:03:53;;;;;;;5.00;3.65;;;14.50;75.70;;;;;;5055921;28;20086;-80
2021/11/20 02:06:50;;;;;;;4.72;3.67;;;14.40;76.40;;;;;;5056619;28;20029;-80
2021/11/20 02:09:31;;;;;;;5.00;3.78;;;14.40;75.80;;;;;;5056808;28;20055;-80
2021/11/20 02:12:28;;;;;;;5.20;3.83;;;14.40;75.70;;;;;;5069921;28;20048;-81
2021/11/20 02:14:59;;;;;;;4.43;3.47;;;14.40;75.80;;;;;;5055753;28;20094;-80
2021/11/20 02:17:37;;;;;;;4.30;3.53;;;14.40;75.70;;;;;;5038250;28;20091;-80
2021/11/20 02:20:13;;;;;;;5.22;3.72;;;14.40;75.80;;;;;;5054702;28;20044;-80
2021/11/20 02:22:39;;;;;;;5.15;3.83;;;14.40;75.80;;;;;;5054668;28;20029;-81
2021/11/20 02:25:11;;;;;;;5.38;3.83;;;14.40;75.70;;;;;;5055185;28;20029;-80
2021/11/20 02:27:55;;;;;;;4.70;3.85;;;14.40;75.70;;;;;;5055397;28;20088;-80
2021/11/20 02:30:32;;;;;;;4.88;3.70;;;14.40;75.70;;;;;;5070760;28;20037;-80
2021/11/20 02:33:11;;;;;;;4.80;3.63;;;14.40;75.80;;;;;;5054477;28;20082;-80
2021/11/20 02:35:54;;;;;;;4.90;3.88;;;14.40;75.70;;;;;;5054535;28;20048;-80
2021/11/20 02:38:37;;;;;;;5.32;3.85;;;14.40;75.70;;;;;;5054410;28;20054;-79
2021/11/20 02:41:05;;;;;;;5.07;3.75;;;14.40;75.80;;;;;;5054032;28;20036;-81
2021/11/20 02:43:37;;;;;;;4.88;3.92;;;14.40;75.70;;;;;;5054316;28;20021;-80
2021/11/20 02:46:20;;;;;;;4.95;3.83;;;14.40;75.70;;;;;;5054916;28;20049;-80
2021/11/20 02:48:47;;;;;;;5.18;3.85;;;14.40;75.70;;;;;;5053824;28;20032;-81
2021/11/20 02:51:20;;;;;;;5.28;4.28;;;14.40;75.70;;;;;;5053904;28;20036;-80
2021/11/20 02:53:53;;;;;;;4.63;3.85;;;14.40;75.80;;;;;;5054183;28;20071;-81
2021/11/20 02:56:23;;;;;;;4.50;3.85;;;14.40;75.70;;;;;;5053859;28;20032;-80
2021/11/20 02:58:50;;;;;;;5.85;4.32;;;14.30;75.70;;;;;;5053824;28;20099;-80
2021/11/20 03:01:27;;;;;;;5.80;4.00;;;14.40;75.70;;;;;;5054072;28;20078;-79
2021/11/20 03:03:53;;;;;;;5.38;4.07;;;14.40;75.80;;;;;;5054084;28;20195;-79
2021/11/20 03:06:19;;;;;;;5.90;4.45;;;14.40;75.70;;;;;;5053620;28;20021;-79
2021/11/20 03:08:46;;;;;;;5.25;3.97;;;14.30;75.70;;;;;;5053625;28;20396;-81
2021/11/20 03:11:16;;;;;;;5.35;4.03;;;14.30;75.70;;;;;;5054190;28;20064;-80
2021/11/20 03:13:47;;;;;;;5.30;3.90;;;14.30;75.70;;;;;;5053901;28;20409;-80
2021/11/20 03:16:25;;;;;;;5.30;4.40;;;14.30;75.70;;;;;;5053800;28;20107;-81
2021/11/20 03:18:51;;;;;;;5.47;4.50;;;14.30;75.60;;;;;;5053579;28;20114;-79
2021/11/20 03:21:19;;;;;;;5.70;4.57;;;14.40;75.70;;;;;;5052977;28;20082;-80
2021/11/20 03:23:49;;;;;;;6.20;4.88;;;14.30;75.70;;;;;;5053355;28;20523;-80
2021/11/20 03:26:16;;;;;;;5.85;4.35;;;14.30;75.80;;;;;;5053983;28;20357;-78
2021/11/20 03:28:42;;;;;;;5.80;4.32;;;14.30;75.70;;;;;;5053562;28;20538;-79
2021/11/20 03:31:08;;;;;;;6.40;4.95;;;14.30;75.70;;;;;;5052883;28;20036;-80
2021/11/20 03:33:34;;;;;;;6.10;4.78;;;14.30;75.70;;;;;;5036117;28;20056;-80
2021/11/20 03:36:00;;;;;;;6.50;5.00;;;14.30;75.70;;;;;;5052731;28;20071;-81
2021/11/20 03:38:28;;;;;;;5.88;4.82;;;14.20;75.60;;;;;;5053225;28;20028;-81
2021/11/20 03:41:00;;;;;;;6.13;4.90;;;14.30;75.70;;;;;;5053445;28;20045;-80
2021/11/20 03:43:26;;;;;;;6.28;5.10;;;14.30;75.70;;;;;;5052927;28;20051;-80
2021/11/20 03:45:52;;;;;;;6.22;5.20;;;14.30;75.70;;;;;;5053027;28;20086;-80
2021/11/20 03:48:18;;;;;;;6.22;4.90;;;14.30;75.70;;;;;;5052927;28;20428;-80
2021/11/20 03:50:46;;;;;;;5.80;4.88;;;14.30;75.70;;;;;;5052960;28;20044;-80
2021/11/20 03:53:13;;;;;;;7.25;5.07;;;14.30;75.70;;;;;;5052869;28;20025;-80
2021/11/20 03:55:43;;;;;;;6.85;5.22;;;14.30;75.70;;;;;;5052935;28;20046;-79
2021/11/20 03:58:09;;;;;;;6.40;5.22;;;14.20;75.70;;;;;;5052661;28;20458;-80
2021/11/20 04:00:39;;;;;;;6.13;4.82;;;14.30;75.70;;;;;;5036216;28;20040;-80
2021/11/20 04:03:06;;;;;;;6.78;5.68;;;14.20;75.70;;;;;;5052953;28;20052;-80
2021/11/20 04:05:36;;;;;;;6.47;5.20;;;14.20;75.70;;;;;;5052856;28;20029;-80
2021/11/20 04:08:02;;;;;;;6.45;5.05;;;14.20;75.60;;;;;;5052895;28;20036;-80
2021/11/20 04:10:29;;;;;;;6.82;5.60;;;14.30;75.70;;;;;;5052696;28;20020;-80
2021/11/20 04:12:56;;;;;;;6.88;5.63;;;14.20;75.70;;;;;;5052804;28;20029;-80
2021/11/20 04:15:26;;;;;;;6.90;5.40;;;14.20;75.70;;;;;;5052917;28;20040;-80
2021/11/20 04:17:53;;;;;;;6.47;5.47;;;14.20;75.70;;;;;;5053405;28;20029;-80
2021/11/20 04:20:22;;;;;;;6.97;5.78;;;14.20;75.70;;;;;;5052321;28;20029;-80
2021/11/20 04:22:48;;;;;;;6.90;5.63;;;14.20;75.70;;;;;;5052365;28;20036;-80
2021/11/20 04:25:18;;;;;;;6.63;5.20;;;14.20;75.70;;;;;;5036257;28;20405;-80
2021/11/20 04:28:11;;;;;;;6.57;5.22;;;14.20;75.70;;;;;;5063787;28;20071;-82
2021/11/20 04:30:43;;;;;;;7.68;6.10;;;14.20;75.70;;;;;;5053959;28;20082;-79
2021/11/20 04:33:11;;;;;;;8.07;6.07;;;14.20;75.70;;;;;;5053319;28;20025;-80
2021/11/20 04:35:38;;;;;;;7.53;5.80;;;14.20;75.80;;;;;;5053441;28;20450;-80
2021/11/20 04:38:06;;;;;;;7.07;5.80;;;14.20;75.70;;;;;;5052678;28;20029;-79
2021/11/20 04:40:33;;;;;;;6.55;5.30;;;14.20;75.70;;;;;;5052758;28;20029;-80
2021/11/20 04:43:00;;;;;;;7.25;5.90;;;14.20;75.70;;;;;;5053876;28;20025;-79
2021/11/20 04:45:28;;;;;;;7.68;6.18;;;14.20;75.70;;;;;;5054794;28;20022;-80
2021/11/20 04:47:55;;;;;;;7.18;5.80;;;14.20;75.80;;;;;;5057132;28;20040;-80
2021/11/20 04:50:28;;;;;;;7.32;6.07;;;14.20;75.70;;;;;;5056778;28;20430;-80
2021/11/20 04:52:54;;;;;;;7.78;6.28;;;14.20;75.70;;;;;;5056208;28;20071;-80
2021/11/20 04:55:21;;;;;;;7.72;6.05;;;14.20;75.70;;;;;;5056576;28;20051;-79
2021/11/20 04:57:49;;;;;;;8.38;6.63;;;14.10;75.70;;;;;;5057418;28;20033;-79
2021/11/20 05:00:20;;;;;;;7.47;5.93;;;14.10;75.70;;;;;;5056865;28;20030;-80
2021/11/20 05:02:50;;;;;;;7.30;6.30;;;14.20;75.80;;;;;;5057497;28;20060;-80
2021/11/20 05:05:23;;;;;;;8.30;6.72;;;14.10;75.60;;;;;;5056570;28;20029;-80
2021/11/20 05:07:49;;;;;;;7.93;6.30;;;14.10;75.70;;;;;;5056118;28;20071;-80
2021/11/20 05:10:15;;;;;;;8.15;6.72;;;14.10;75.70;;;;;;5056122;28;20060;-80
2021/11/20 05:12:43;;;;;;;8.30;6.55;;;14.10;75.70;;;;;;5055694;28;20377;-80
2021/11/20 05:15:23;;;;;;;8.27;6.55;;;14.20;75.80;;;;;;5058378;28;20020;-80
2021/11/20 05:17:49;;;;;;;8.18;6.60;;;14.10;75.70;;;;;;5056555;28;20029;-80
2021/11/20 05:20:36;;;;;;;9.05;6.97;;;14.10;75.70;;;;;;5055817;28;20033;-80
2021/11/20 05:23:02;;;;;;;8.13;6.65;;;14.10;75.70;;;;;;5056208;28;20040;-80
2021/11/20 05:25:28;;;;;;;7.88;6.38;;;14.10;75.70;;;;;;5039190;28;20037;-80
2021/11/20 05:27:54;;;;;;;7.80;6.57;;;14.10;75.70;;;;;;5056276;28;20025;-80
2021/11/20 05:30:29;;;;;;;8.20;6.93;;;14.10;75.70;;;;;;5055510;28;20476;-80
2021/11/20 05:32:57;;;;;;;8.18;6.70;;;14.10;75.70;;;;;;5056318;28;20029;-80
2021/11/20 05:35:24;;;;;;;7.50;6.32;;;14.10;75.70;;;;;;5055479;28;20053;-81
2021/11/20 05:37:50;;;;;;;8.82;6.63;;;14.10;75.70;;;;;;5055404;28;20032;-79
2021/11/20 05:40:18;;;;;;;9.00;7.13;;;14.10;75.80;;;;;;5039086;28;20500;-80
2021/11/20 05:42:51;;;;;;;8.15;6.72;;;14.10;75.80;;;;;;5055997;28;20450;-80
2021/11/20 05:45:23;;;;;;;9.05;7.18;;;14.10;75.70;;;;;;5055544;28;20419;-81
2021/11/20 05:47:49;;;;;;;8.60;6.97;;;14.10;75.70;;;;;;5055792;28;20061;-79
2021/11/20 05:50:19;;;;;;;9.77;7.63;;;14.10;75.70;;;;;;5055795;28;20029;-80
2021/11/20 05:52:48;;;;;;;8.55;6.80;;;14.10;75.70;;;;;;5054937;28;20032;-80
2021/11/20 05:55:16;;;;;;;9.63;7.40;;;14.10;75.70;;;;;;5055809;28;20021;-80
2021/11/20 05:57:43;;;;;;;9.10;7.28;;;14.10;75.70;;;;;;5070861;28;20032;-80
2021/11/20 06:00:17;;;;;;;10.02;7.90;;;14.10;75.70;;;;;;5054893;28;20043;-80
2021/11/20 06:02:58;;;;;;;9.48;7.93;;;14.10;75.80;;;;;;5055559;28;20111;-79
2021/11/20 06:05:39;;;;;;;9.70;7.88;;;14.10;75.70;;;;;;5055071;28;20021;-79
2021/11/20 06:08:06;;;;;;;10.23;7.88;;;14.00;75.70;;;;;;5054526;28;20029;-79
2021/11/20 06:10:33;;;;;;;10.07;7.72;;;14.10;75.80;;;;;;5038311;28;20124;-80
2021/11/20 06:12:59;;;;;;;9.85;7.95;;;14.00;75.70;;;;;;5054756;28;20458;-80
2021/11/20 06:15:27;;;;;;;10.63;8.23;;;14.00;75.70;;;;;;5054608;28;20033;-80
2021/11/20 06:17:53;;;;;;;10.02;8.00;;;14.00;75.70;;;;;;5054935;28;20025;-80
2021/11/20 06:20:20;;;;;;;9.70;7.95;;;14.00;75.70;;;;;;5054771;28;20033;-80
2021/11/20 06:22:46;;;;;;;9.95;7.90;;;14.00;75.70;;;;;;5054748;28;20072;-80
2021/11/20 06:25:14;;;;;;;10.40;8.20;;;14.00;75.70;;;;;;5054745;28;20359;-80
2021/11/20 06:27:41;;;;;;;10.15;7.90;;;14.00;75.80;;;;;;5054459;28;20489;-80
2021/11/20 06:30:16;;;;;;;10.30;8.00;;;14.10;75.80;;;;;;5054723;28;20056;-80
2021/11/20 06:32:44;;;;;;;10.43;8.23;;;14.00;75.70;;;;;;5054607;28;20497;-79
2021/11/20 06:35:35;;;;;;;11.20;8.18;;;14.00;75.70;;;;;;5065904;28;20075;-79
2021/11/20 06:38:13;;;;;;;10.00;7.85;;;14.00;75.70;;;;;;5054493;28;20036;-80
2021/11/20 06:40:43;;;;;;;9.93;8.13;;;14.00;75.70;;;;;;5054499;28;20040;-81
2021/11/20 06:43:13;;;;;;;10.93;8.40;;;14.00;76.40;;;;;;5054684;28;20043;-80
2021/11/20 06:45:44;;;;;;;11.07;8.63;;;14.00;75.70;;;;;;5054012;28;20373;-79
2021/11/20 06:48:10;;;;;;;10.90;8.85;;;14.00;75.80;;;;;;5054409;28;20033;-80
2021/11/20 06:50:39;;;;;;;10.52;7.80;;;14.00;75.80;;;;;;5054018;28;20064;-77
2021/11/20 06:53:34;;;;;;;11.35;8.52;;;14.00;75.80;;;;;;5052987;28;20037;-77
2021/11/20 06:56:30;;;;;;;10.48;7.50;;;14.00;75.70;;;;;;5054930;28;20072;-80
2021/11/20 07:02:33;;;;;;;10.38;8.15;;;13.90;75.70;;;;;;5054581;28;20074;-81
2021/11/20 07:05:00;;;;;;;10.88;8.32;;;13.90;75.80;;;;;;5054456;28;20021;-79
2021/11/20 07:07:27;;;;;;;12.23;8.75;;;13.90;75.80;;;;;;5037080;28;20043;-80
2021/11/20 07:09:54;;;;;;;10.88;8.25;;;13.90;75.80;;;;;;5053192;28;20040;-80
2021/11/20 07:12:20;;;;;;;11.25;8.27;;;13.90;75.80;;;;;;5053752;28;20063;-80
2021/11/20 07:14:46;;;;;;;12.38;8.50;;;13.90;75.80;;;;;;5054462;28;20091;-79
2021/11/20 07:17:13;;;;;;;11.90;9.50;;;13.90;75.80;;;;;;5053749;28;20040;-80
2021/11/20 07:19:52;;;;;;;11.00;8.45;;;13.90;75.80;;;;;;5053908;28;20044;-80
2021/11/20 07:22:49;;;;;;;10.80;8.80;;;13.90;75.80;;;;;;5067015;28;20416;-81
2021/11/20 07:25:18;;;;;;;12.10;8.80;;;13.90;75.70;;;;;;5053431;28;20473;-79
2021/11/20 07:27:44;;;;;;;11.98;8.55;;;13.90;75.80;;;;;;5054047;28;20024;-80
2021/11/20 07:30:12;;;;;;;11.75;8.55;;;13.90;75.80;;;;;;5054454;28;20033;-81
2021/11/20 07:32:46;;;;;;;11.38;8.30;;;13.90;75.80;;;;;;5054882;28;20029;-79
2021/11/20 07:35:23;;;;;;;11.32;8.65;;;13.90;75.80;;;;;;5036323;28;20401;-80
2021/11/20 07:37:49;;;;;;;11.75;9.13;;;13.90;75.90;;;;;;5053883;28;20079;-80
2021/11/20 07:40:15;;;;;;;11.95;9.27;;;13.90;75.70;;;;;;5053051;28;20032;-80
2021/11/20 07:42:41;;;;;;;11.73;8.57;;;13.90;75.80;;;;;;5054185;28;20040;-80
2021/11/20 07:45:25;;;;;;;13.70;9.43;;;13.90;75.80;;;;;;5053382;28;20048;-80
2021/11/20 07:48:08;;;;;;;11.65;8.50;;;13.90;75.70;;;;;;5055042;28;20035;-78
2021/11/20 07:50:34;;;;;;;12.32;8.77;;;13.90;75.70;;;;;;5053511;28;20098;-80
2021/11/20 07:53:02;;;;;;;10.95;8.45;;;13.90;75.80;;;;;;5052791;28;20036;-80
2021/11/20 07:55:28;;;;;;;11.63;8.32;;;13.90;75.80;;;;;;5036015;28;20037;-79
2021/11/20 07:57:57;;;;;;;11.23;8.60;;;13.90;75.80;;;;;;5052606;28;20021;-78
2021/11/20 08:00:25;;;;;;;12.13;9.27;;;13.90;75.80;;;;;;5052607;28;20029;-79
2021/11/20 08:03:03;;;;;;;12.13;8.73;;;13.90;75.80;;;;;;5052614;28;20053;-78
2021/11/20 08:05:51;;;;;;;11.50;8.80;;;13.90;75.80;;;;;;5053853;28;20037;-79
2021/11/20 08:08:37;;;;;;;12.13;9.07;;;13.90;75.80;;;;;;5052730;28;20370;-78
2021/11/20 08:11:08;;;;;;;12.30;8.77;;;13.80;75.70;;;;;;5053730;28;20037;-77
2021/11/20 08:13:35;;;;;;;12.68;9.15;;;13.80;75.70;;;;;;5036751;28;20426;-79
2021/11/20 08:16:19;;;;;;;13.35;9.18;;;13.80;75.80;;;;;;5052590;28;20036;-78
2021/11/20 08:19:02;;;;;;;11.23;9.07;;;13.90;75.80;;;;;;5052999;28;20033;-80
2021/11/20 08:21:32;;;;;;;12.57;9.50;;;13.80;75.80;;;;;;5052199;28;20040;-80
2021/11/20 08:24:06;;;;;;;;;;;13.80;75.80;;;;;;5037683;28;20100;-78
2021/11/20 08:26:36;;;;;;;10.75;7.82;;;13.80;75.70;;;;;;5052148;28;19912;-79
2021/11/20 08:29:16;;;;;;;11.73;8.60;;;13.80;75.70;;;;;;5035823;28;20029;-77
2021/11/20 08:31:46;;;;;;;14.10;10.38;;;13.80;75.90;;;;;;5052347;28;20116;-78
2021/11/20 08:34:32;;;;;;;13.75;9.85;;;13.80;75.90;;;;;;5051832;28;20055;-79
2021/11/20 08:37:15;;;;;;;13.18;9.60;;;13.80;75.80;;;;;;5052215;28;20111;-79
2021/11/20 08:39:45;;;;;;;13.45;9.88;;;13.80;75.80;;;;;;5052530;28;20073;-78
2021/11/20 08:42:15;;;;;;;13.57;9.80;;;13.80;75.90;;;;;;5052721;28;20025;-78
2021/11/20 08:44:42;;;;;;;13.70;10.60;;;13.80;76.50;;;;;;5052063;28;20029;-79
2021/11/20 08:47:09;;;;;;;13.73;10.63;;;13.80;75.90;;;;;;5052031;28;20025;-78
2021/11/20 08:49:39;;;;;;;13.38;10.23;;;13.80;76.50;;;;;;5036187;28;20029;-79
2021/11/20 08:52:08;;;;;;;14.98;11.23;;;13.80;75.90;;;;;;5068960;28;20037;-78
2021/11/20 08:54:35;;;;;;;13.63;10.65;;;13.80;75.90;;;;;;5068418;28;20029;-78
2021/11/20 08:57:02;;;;;;;15.07;10.95;;;13.80;75.90;;;;;;5068667;28;20028;-78
2021/11/20 08:59:32;;;;;;;15.38;12.10;;;13.80;75.90;;;;;;5051834;28;20045;-77
2021/11/20 09:02:19;;;;;;;14.90;11.23;;;13.80;75.90;;;;;;5067887;28;20385;-78
2021/11/20 09:04:57;;;;;;;15.23;11.25;;;13.80;76.50;;;;;;5036195;28;20120;-78
2021/11/20 09:07:36;;;;;;;;;;;13.80;75.90;;;;;;5052391;28;20028;-80
2021/11/20 09:10:14;;;;;;;15.00;10.82;;;13.80;75.80;;;;;;5068608;28;19909;-78
2021/11/20 09:12:49;;;;;;;14.95;11.27;;;13.80;76.10;;;;;;5051878;28;20035;-78
2021/11/20 09:15:15;;;;;;;16.23;11.63;;;13.80;76.00;;;;;;5053135;28;20025;-78
2021/11/20 09:17:43;;;;;;;13.88;10.95;;;13.80;75.90;;;;;;5051623;28;20033;-78
2021/11/20 09:20:12;;;;;;;16.58;12.70;;;13.80;76.00;;;;;;5085468;28;20041;-79
2021/11/20 09:22:38;;;;;;;15.38;11.50;;;13.80;76.00;;;;;;5051877;28;20029;-79
2021/11/20 09:25:28;;;;;;;15.00;11.95;;;13.80;76.00;;;;;;5051990;28;20037;-79
2021/11/20 09:27:56;;;;;;;14.25;11.18;;;13.80;76.00;;;;;;5035455;28;20040;-77
2021/11/20 09:30:32;;;;;;;15.80;12.38;;;13.80;76.00;;;;;;5053041;28;20036;-78
2021/11/20 09:32:58;;;;;;;18.10;12.68;;;13.80;76.00;;;;;;5036535;28;20401;-78
2021/11/20 09:35:34;;;;;;;15.07;11.77;;;13.80;76.00;;;;;;5040149;28;20136;-78
2021/11/20 09:38:06;;;;;;;15.75;12.55;;;13.80;76.00;;;;;;5055534;28;20462;-77
2021/11/20 09:40:36;;;;;;;16.17;12.82;;;13.80;76.00;;;;;;5055880;28;20130;-78
2021/11/20 09:43:09;;;;;;;15.85;12.05;;;13.80;76.00;;;;;;5039587;28;20033;-79
2021/11/20 09:45:43;;;;;;;16.08;12.55;;;13.80;76.00;;;;;;5055073;28;20030;-77
2021/11/20 09:48:17;;;;;;;17.27;13.80;;;13.80;76.00;;;;;;5039035;28;20037;-79
2021/11/20 09:51:12;;;;;;;15.38;12.05;;;13.80;76.00;;;;;;5072073;28;20037;-79
2021/11/20 09:53:39;;;;;;;16.35;12.75;;;13.80;76.10;;;;;;5054718;28;20470;-79
2021/11/20 09:56:09;;;;;;;16.70;12.88;;;13.80;75.90;;;;;;5055103;28;20024;-77
2021/11/20 09:58:42;;;;;;;16.70;12.75;;;13.80;76.00;;;;;;5038420;28;20025;-77
2021/11/20 10:01:23;;;;;;;17.00;12.95;;;13.90;76.00;;;;;;5071410;28;20037;-79
2021/11/20 10:04:01;;;;;;;16.83;12.85;;;13.80;76.00;;;;;;5054920;28;20099;-77
2021/11/20 10:06:34;;;;;;;15.95;12.48;;;13.80;76.00;;;;;;5055369;28;20068;-79
2021/11/20 10:09:24;;;;;;;16.63;12.65;;;13.80;76.00;;;;;;5056387;28;20102;-80
2021/11/20 10:12:01;;;;;;;17.00;13.15;;;13.90;76.10;;;;;;5056544;28;20036;-77
2021/11/20 10:14:45;;;;;;;17.48;13.75;;;13.80;76.00;;;;;;5055476;28;20052;-77
2021/11/20 10:17:36;;;;;;;16.83;13.50;;;13.80;76.00;;;;;;5056312;28;20037;-79
2021/11/20 10:20:34;;;;;;;17.85;13.90;;;13.80;76.10;;;;;;5088245;28;20037;-79
2021/11/20 10:23:09;;;;;;;16.02;13.10;;;13.90;76.10;;;;;;5052795;28;20032;-79
2021/11/20 10:25:47;;;;;;;14.82;12.27;;;13.90;76.00;;;;;;5054644;28;20040;-79
2021/11/20 10:28:35;;;;;;;17.60;13.52;;;13.80;76.00;;;;;;5055661;28;20024;-79
2021/11/20 10:31:07;;;;;;;15.85;12.57;;;13.90;76.10;;;;;;5055470;28;20040;-79
2021/11/20 10:33:36;;;;;;;17.65;13.25;;;13.80;76.00;;;;;;5055479;28;20041;-79
2021/11/20 10:36:10;;;;;;;17.45;13.82;;;13.80;76.00;;;;;;5053883;28;20033;-79
2021/11/20 10:38:59;;;;;;;17.13;13.17;;;13.90;76.10;;;;;;5054164;28;20060;-80
2021/11/20 10:41:38;;;;;;;16.88;13.63;;;13.90;76.10;;;;;;5055538;28;20287;-79
2021/11/20 10:44:11;;;;;;;16.95;13.07;;;13.90;76.10;;;;;;5054406;28;20056;-79
2021/11/20 10:46:58;;;;;;;17.13;13.18;;;13.90;76.10;;;;;;5054026;28;20053;-79
2021/11/20 10:49:48;;;;;;;16.52;13.45;;;13.90;76.20;;;;;;5053780;28;20385;-79
2021/11/20 10:53:04;;;;;;;17.70;13.65;;;13.80;76.10;;;;;;5054516;28;20032;-79
2021/11/20 10:55:49;;;;;;;16.83;12.88;;;13.90;76.20;;;;;;5053539;28;20595;-80
2021/11/20 10:58:24;;;;;;;16.07;12.70;;;13.90;76.10;;;;;;5053994;28;20167;-80
2021/11/20 11:00:49;;;;;;;;;;;13.90;76.00;;;;;;5053981;28;20041;-80
2021/11/20 11:03:40;;;;;;;16.25;12.25;;;13.90;75.90;;;;;;5053982;28;20409;-79
2021/11/20 11:06:32;;;;;;;17.67;12.48;;;13.90;76.00;;;;;;5054816;28;20036;-79
2021/11/20 11:09:07;;;;;;;16.17;12.73;;;13.90;76.10;;;;;;5054570;28;20025;-78
2021/11/20 11:11:44;;;;;;;17.15;13.27;;;13.90;76.10;;;;;;5053484;28;20064;-80
2021/11/20 11:14:30;;;;;;;16.27;12.50;;;13.90;76.10;;;;;;5087146;28;20112;-83
2021/11/20 11:17:21;;;;;;;15.88;13.10;;;13.90;76.00;;;;;;5038211;28;20064;-80
2021/11/20 11:19:55;;;;;;;17.48;13.57;;;13.90;76.00;;;;;;5054116;28;20079;-78
2021/11/20 11:22:43;;;;;;;17.38;12.90;;;14.00;76.10;;;;;;5053013;28;20052;-79
2021/11/20 11:25:21;;;;;;;16.98;13.60;;;13.90;76.10;;;;;;5087977;28;20037;-79
2021/11/20 11:27:49;;;;;;;17.30;13.88;;;13.90;76.00;;;;;;5069816;28;20029;-79
2021/11/20 11:30:29;;;;;;;17.00;13.98;;;14.00;76.00;;;;;;5053354;28;20060;-80
2021/11/20 11:32:57;;;;;;;16.38;13.02;;;13.90;76.00;;;;;;5054466;28;20025;-79
2021/11/20 11:35:33;;;;;;;16.65;12.82;;;14.00;76.00;;;;;;5052943;28;20057;-81
2021/11/20 11:38:16;;;;;;;16.98;12.82;;;14.00;76.00;;;;;;5053102;28;20028;-79
2021/11/20 11:41:12;;;;;;;16.27;12.88;;;14.00;76.10;;;;;;5054429;28;20060;-79
2021/11/20 11:43:40;;;;;;;16.35;12.52;;;14.00;76.00;;;;;;5052596;28;20119;-78
2021/11/20 11:46:29;;;;;;;16.60;13.13;;;14.00;75.90;;;;;;5054208;28;20032;-80
2021/11/20 11:49:06;;;;;;;17.70;13.77;;;14.00;76.00;;;;;;5054332;28;20032;-79
2021/11/20 11:51:57;;;;;;;17.92;14.60;;;14.00;75.90;;;;;;5052873;28;20033;-79
2021/11/20 11:54:49;;;;;;;16.92;13.35;;;14.00;76.00;;;;;;5054198;28;20104;-80
2021/11/20 11:57:15;;;;;;;16.70;13.50;;;14.00;75.90;;;;;;5069162;28;20025;-79
2021/11/20 12:00:15;;;;;;;18.33;14.25;;;14.10;75.80;;;;;;5053393;28;20037;-79
2021/11/20 12:02:49;;;;;;;17.20;13.48;;;14.10;76.00;;;;;;5054037;28;20040;-79
2021/11/20 12:05:31;;;;;;;16.73;13.10;;;14.10;75.80;;;;;;5069544;28;20133;-79
2021/11/20 12:08:18;;;;;;;18.10;14.77;;;14.10;75.90;;;;;;5052328;28;20049;-79
2021/11/20 12:10:57;;;;;;;17.85;13.35;;;14.10;75.90;;;;;;5052862;28;20033;-79
2021/11/20 12:13:46;;;;;;;18.20;13.73;;;14.10;75.80;;;;;;5053936;28;20066;-79
2021/11/20 12:16:34;;;;;;;17.85;13.30;;;14.10;75.90;;;;;;5052348;28;20025;-79
2021/11/20 12:19:02;;;;;;;17.45;13.82;;;14.10;75.90;;;;;;5069487;28;20021;-80
2021/11/20 12:21:38;;;;;;;17.70;14.07;;;14.10;75.80;;;;;;5052131;28;20036;-80
2021/11/20 12:24:39;;;;;;;18.25;14.27;;;14.10;75.80;;;;;;5052646;28;20120;-80
2021/11/20 12:27:22;;;;;;;17.17;13.32;;;14.20;76.00;;;;;;5052239;28;20059;-79
2021/11/20 12:30:06;;;;;;;17.05;12.57;;;14.10;75.70;;;;;;5052428;28;20115;-80
2021/11/20 12:32:53;;;;;;;16.80;13.57;;;14.20;75.80;;;;;;5052689;28;20040;-79
2021/11/20 12:35:50;;;;;;;16.92;13.38;;;14.10;75.80;;;;;;5052503;28;20099;-79
2021/11/20 12:38:18;;;;;;;15.98;12.38;;;14.20;75.90;;;;;;5052441;28;20029;-78
2021/11/20 12:41:16;;;;;;;17.67;13.57;;;14.20;75.80;;;;;;5051904;28;20037;-79
2021/11/20 12:43:53;;;;;;;17.55;13.43;;;14.10;75.90;;;;;;5041416;28;20043;-79
2021/11/20 12:46:43;;;;;;;17.88;13.18;;;14.20;75.80;;;;;;5052684;28;20060;-79
2021/11/20 12:49:16;;;;;;;15.63;12.48;;;14.20;75.80;;;;;;5053121;28;20179;-79
2021/11/20 12:51:58;;;;;;;15.38;12.30;;;14.20;75.80;;;;;;5053291;28;20036;-78
2021/11/20 12:54:45;;;;;;;15.52;12.80;;;14.20;75.80;;;;;;5051767;28;20067;-79
2021/11/20 12:57:25;;;;;;;16.40;12.93;;;14.20;75.80;;;;;;5051964;28;20032;-80
2021/11/20 13:00:02;;;;;;;16.23;12.80;;;14.20;75.80;;;;;;5069125;28;20037;-79
2021/11/20 13:03:07;;;;;;;15.68;12.52;;;14.20;75.70;;;;;;5052118;28;20037;-79
2021/11/20 13:05:42;;;;;;;14.77;11.73;;;14.20;75.90;;;;;;5083516;28;20049;-79
2021/11/20 13:08:27;;;;;;;16.33;12.35;;;14.20;75.70;;;;;;5053211;28;20029;-79
2021/11/20 13:11:09;;;;;;;15.00;11.75;;;14.20;75.80;;;;;;5056895;28;20033;-81
2021/11/20 13:13:46;;;;;;;15.52;12.55;;;14.20;75.80;;;;;;5055673;28;20037;-79
2021/11/20 13:16:30;;;;;;;16.15;12.65;;;14.20;75.80;;;;;;5055760;28;20534;-80
2021/11/20 13:19:01;;;;;;;17.15;12.45;;;14.20;75.70;;;;;;5038687;28;20033;-79
2021/11/20 13:21:33;;;;;;;14.82;11.02;;;14.20;75.70;;;;;;5056110;28;20071;-79